< < Back
Terminal Aerodrome Forecast


Current Version              Previous Versions:   1  2  3  4  5  6  7  8  9  

Terminal Aerodrome Forecast

004
FTUS44 KMRX 280703 AAA
TAFTYS
TAF AMD
KTYS 280703Z 2807/2906 VRB02KT 1/4SM FG BKN001
     FM281200 VRB02KT 4SM BR SCT002
     FM281300 23006KT P6SM SCT050 BKN250
     FM290100 VRB02KT P6SM SCT070 BKN200=

Latest METAR

289
SAUS80 KWBC 280700 RRE
MTRTYS
METAR KTYS 280753Z 09003KT 1/4SM R23R/1400V2400FT FG VV001 18/18 A3008
RMK AO2 SLP177 T01830183


USA.gov is the U.S. government's official web portal to all federal, state and local government web resources and services.